Time;durP1;ratioP1;P1;durP2;ratioP2;P2;SDS_P1;SDS_P2;PMS_P1;PMS_P2;Temp;Humidity;BMP_temperature;BMP_pressure;BME280_temperature;BME280_humidity;BME280_pressure;Samples;Min_cycle;Max_cycle;Signal;HPM_P1;HPM_P2
2022/04/25 00:02:03;;;;;;;;;14.33;12.33;;;;;14.96;100.00;100301.75;6362189;22;44597;-96
2022/04/25 00:04:36;;;;;;;;;17.00;13.50;;;;;14.85;100.00;100279.44;6359020;22;44763;-96
2022/04/25 00:07:05;;;;;;;;;16.25;14.00;;;;;14.89;100.00;100286.63;6358298;22;47148;-96
2022/04/25 00:09:36;;;;;;;;;15.00;13.50;;;;;14.96;100.00;100288.53;6325214;22;45589;-96
2022/04/25 00:12:03;;;;;;;;;12.50;12.50;;;;;14.92;100.00;100281.38;6325203;22;45770;-96
2022/04/25 00:20:08;;;;;;;;;13.00;13.00;;;;;14.90;100.00;100279.56;6172222;23;44651;-96
2022/04/25 00:27:54;;;;;;;;;16.33;13.00;;;;;14.85;100.00;100275.06;6308756;22;46235;-96
2022/04/25 00:30:20;;;;;;;;;17.33;12.00;;;;;14.93;100.00;100301.66;6296100;22;44789;-94
2022/04/25 00:32:49;;;;;;;;;13.67;9.00;;;;;14.84;100.00;100277.69;6296223;22;45280;-96
2022/04/25 00:35:14;;;;;;;;;13.33;11.00;;;;;14.83;100.00;100291.75;6295846;22;44743;-96
2022/04/25 00:37:40;;;;;;;;;13.67;13.33;;;;;14.83;100.00;100284.72;6295860;22;46980;-96
2022/04/25 00:40:06;;;;;;;;;14.00;13.67;;;;;14.82;100.00;100295.22;6269426;22;44785;-96
2022/04/25 00:42:32;;;;;;;;;13.00;12.00;;;;;14.75;100.00;100294.22;6301278;22;44717;-96
2022/04/25 00:45:03;;;;;;;;;16.00;12.25;;;;;14.78;100.00;100296.03;6250030;22;44803;-96
2022/04/25 00:47:37;;;;;;;;;11.00;10.75;;;;;14.77;100.00;100287.22;6189085;22;46410;-96
2022/04/25 00:50:32;;;;;;;;;15.50;10.00;;;;;14.61;100.00;100286.03;6271270;22;44746;-96
2022/04/25 00:52:59;;;;;;;;;15.00;12.50;;;;;14.70;100.00;100270.34;6239469;22;44733;-96
2022/04/25 00:55:25;;;;;;;;;14.67;11.67;;;;;14.73;100.00;100288.03;6269705;22;44794;-96
2022/04/25 00:57:52;;;;;;;;;17.00;13.67;;;;;14.75;100.00;100296.88;6264681;22;46815;-96
2022/04/25 01:00:19;;;;;;;;;17.67;13.33;;;;;14.72;100.00;100302.06;6268113;22;45187;-96
2022/04/25 01:02:49;;;;;;;;;12.67;11.00;;;;;14.76;100.00;100309.22;6161636;22;45218;-96
2022/04/25 01:05:27;;;;;;;;;15.67;13.00;;;;;14.73;100.00;100306.50;6262150;22;45544;-96
2022/04/25 01:07:53;;;;;;;;;11.00;11.00;;;;;14.69;100.00;100308.19;6267256;22;47140;-96
2022/04/25 01:10:18;;;;;;;;;10.67;10.00;;;;;14.58;100.00;100296.50;6292211;22;45487;-95
2022/04/25 01:12:44;;;;;;;;;12.00;10.33;;;;;14.70;100.00;100317.91;6317078;22;44767;-95
2022/04/25 01:15:12;;;;;;;;;9.67;9.67;;;;;14.60;100.00;100319.47;6327100;22;44681;-96
2022/04/25 01:17:38;;;;;;;;;10.33;9.00;;;;;14.62;100.00;100314.19;6290839;22;47145;-96
2022/04/25 01:20:08;;;;;;;;;10.67;10.33;;;;;14.58;100.00;100322.94;6292133;22;45321;-96
2022/04/25 01:22:47;;;;;;;;;15.00;12.67;;;;;14.60;100.00;100316.81;6296079;22;45231;-96
2022/04/25 01:28:04;;;;;;;;;13.33;9.33;;;;;14.58;100.00;100307.06;6324189;22;44830;-96
2022/04/25 01:30:31;;;;;;;;;9.00;9.00;;;;;14.47;100.00;100301.56;6321534;22;44759;-96
2022/04/25 01:32:57;;;;;;;;;9.67;9.00;;;;;14.52;100.00;100302.53;6314002;22;45369;-95
2022/04/25 01:35:23;;;;;;;;;11.00;10.33;;;;;14.38;100.00;100294.34;6272060;22;45577;-96
2022/04/25 01:37:50;;;;;;;;;14.00;10.00;;;;;14.32;100.00;100302.09;6162344;23;45498;-96
2022/04/25 01:40:15;;;;;;;;;12.67;9.33;;;;;14.35;100.00;100311.00;6269627;22;44785;-96
2022/04/25 01:42:44;;;;;;;;;10.00;9.67;;;;;14.25;100.00;100298.44;6266618;22;44705;-96
2022/04/25 01:45:13;;;;;;;;;11.33;11.33;;;;;14.17;100.00;100298.25;6243681;22;45410;-96
2022/04/25 01:47:44;;;;;;;;;10.00;10.00;;;;;14.22;100.00;100319.47;6168023;22;45587;-96
2022/04/25 01:50:10;;;;;;;;;13.33;11.67;;;;;14.13;100.00;100309.59;6253023;22;45424;-96
2022/04/25 01:52:42;;;;;;;;;8.67;8.00;;;;;14.04;100.00;100302.38;6273070;22;44785;-96
2022/04/25 01:55:09;;;;;;;;;10.33;10.00;;;;;14.12;100.00;100321.88;6260560;22;45233;-96
2022/04/25 01:57:36;;;;;;;;;11.33;10.33;;;;;13.95;100.00;100303.03;6246579;22;45572;-96
2022/04/25 02:00:03;;;;;;;;;16.67;10.00;;;;;13.98;100.00;100312.75;6272340;22;44753;-96
2022/04/25 02:02:32;;;;;;;;;10.00;9.33;;;;;13.93;100.00;100308.28;6247793;22;45208;-96
2022/04/25 02:05:04;;;;;;;;;13.67;11.00;;;;;13.91;100.00;100320.53;6220401;22;44781;-96
2022/04/25 02:07:32;;;;;;;;;14.33;11.00;;;;;13.87;100.00;100329.22;6247750;22;47586;-96
2022/04/25 02:10:13;;;;;;;;;12.00;9.00;;;;;13.72;100.00;100313.88;6276881;22;44713;-96
2022/04/25 02:12:53;;;;;;;;;13.00;11.67;;;;;13.70;100.00;100320.88;6264324;22;45478;-96
2022/04/25 02:17:51;;;;;;;;;9.67;9.67;;;;;13.67;100.00;100302.34;6172671;22;45082;-96
2022/04/25 02:20:16;;;;;;;;;9.00;5.67;;;;;13.77;100.00;100325.44;6243669;22;44826;-96
2022/04/25 02:22:43;;;;;;;;;8.00;8.00;;;;;13.66;100.00;100301.44;6268785;22;44828;-96
2022/04/25 02:25:10;;;;;;;;;12.33;10.33;;;;;13.78;100.00;100324.63;6269633;22;44809;-96
2022/04/25 02:27:35;;;;;;;;;11.75;11.75;;;;;13.70;100.00;100303.31;6239091;22;47502;-96
2022/04/25 02:30:01;;;;;;;;;17.33;13.33;;;;;13.65;100.00;100293.50;6269765;22;44860;-96
2022/04/25 02:32:47;;;;;;;;;12.67;12.33;;;;;13.80;100.00;100319.38;6271631;22;44700;-96
2022/04/25 02:35:13;;;;;;;;;10.00;9.33;;;;;13.67;100.00;100303.22;6164414;22;45219;-96
2022/04/25 02:37:40;;;;;;;;;10.33;10.00;;;;;13.70;100.00;100297.13;6264685;22;47059;-96
2022/04/25 02:40:06;;;;;;;;;9.67;9.67;;;;;13.65;100.00;100293.50;6218483;22;45165;-96
2022/04/25 02:42:33;;;;;;;;;17.67;12.33;;;;;13.74;100.00;100307.81;6238878;22;45358;-95
2022/04/25 02:45:00;;;;;;;;;11.33;10.00;;;;;13.64;100.00;100282.03;6158424;22;44727;-96
2022/04/25 02:47:28;;;;;;;;;14.33;10.33;;;;;13.66;100.00;100296.16;6246174;22;46800;-96
2022/04/25 02:49:56;;;;;;;;;13.50;13.50;;;;;13.74;100.00;100299.00;6240775;22;45373;-96
2022/04/25 02:52:22;;;;;;;;;14.67;12.00;;;;;13.66;100.00;100296.16;6209966;22;44697;-96
2022/04/25 02:54:48;;;;;;;;;13.33;10.33;;;;;13.63;100.00;100288.19;6263644;22;45459;-96
2022/04/25 02:57:14;;;;;;;;;12.00;10.33;;;;;13.60;100.00;100290.75;6158264;23;45555;-96
2022/04/25 02:59:40;;;;;;;;;12.33;10.67;;;;;13.59;100.00;100299.50;6265131;22;45359;-96
2022/04/25 03:02:05;;;;;;;;;16.67;12.00;;;;;13.60;100.00;100290.75;6240919;22;44708;-96
2022/04/25 03:04:31;;;;;;;;;12.00;9.33;;;;;13.56;100.00;100279.19;6258472;22;45392;-96
2022/04/25 03:06:56;;;;;;;;;10.33;10.00;;;;;13.56;100.00;100292.38;6256895;22;46936;-96
2022/04/25 03:09:22;;;;;;;;;4.67;4.00;;;;;13.51;100.00;100280.81;6259285;22;45219;-96
2022/04/25 03:11:50;;;;;;;;;11.67;11.00;;;;;13.58;100.00;100295.09;6258930;22;45197;-96
2022/04/25 03:14:16;;;;;;;;;11.67;9.67;;;;;13.51;100.00;100288.72;6266051;22;44730;-96
2022/04/25 03:16:42;;;;;;;;;12.67;12.33;;;;;13.47;100.00;100287.75;6267643;22;47230;-96
2022/04/25 03:19:08;;;;;;;;;10.33;8.67;;;;;13.47;100.00;100285.13;6261169;22;45695;-96
2022/04/25 03:21:33;;;;;;;;;16.25;11.50;;;;;13.45;100.00;100283.31;6234033;22;45388;-96
2022/04/25 03:24:08;;;;;;;;;11.67;11.67;;;;;13.42;100.00;100281.47;6260927;22;44697;-96
2022/04/25 03:26:33;;;;;;;;;12.67;12.33;;;;;13.37;100.00;100284.00;6114263;22;46810;-96
2022/04/25 03:28:59;;;;;;;;;14.00;10.00;;;;;13.48;100.00;100299.19;6094840;23;44910;-96
2022/04/25 03:31:27;;;;;;;;;13.33;8.33;;;;;13.40;100.00;100286.69;6094733;23;45196;-96
2022/04/25 03:33:52;;;;;;;;;17.67;14.00;;;;;13.37;100.00;100286.63;6148322;22;44865;-96
2022/04/25 03:36:19;;;;;;;;;16.00;11.50;;;;;13.26;100.00;100285.44;6284181;22;46968;-96
2022/04/25 03:38:45;;;;;;;;;19.00;11.00;;;;;13.26;100.00;100285.44;6269950;22;44834;-96
2022/04/25 03:41:11;;;;;;;;;14.67;12.67;;;;;13.27;100.00;100288.09;6293239;22;44733;-96
2022/04/25 03:43:37;;;;;;;;;14.00;11.00;;;;;13.24;100.00;100282.78;6324121;22;44867;-96
2022/04/25 03:46:06;;;;;;;;;14.50;14.50;;;;;13.23;100.00;100283.63;6294400;22;47890;-97
2022/04/25 03:48:35;;;;;;;;;17.67;14.00;;;;;13.16;100.00;100279.03;6325660;22;45128;-96
2022/04/25 03:51:02;;;;;;;;;18.75;15.75;;;;;13.15;100.00;100280.78;6272983;22;44939;-96
2022/04/25 03:53:30;;;;;;;;;15.00;15.00;;;;;13.07;100.00;100270.03;6327625;22;44808;-95
2022/04/25 03:58:42;;;;;;;;;18.00;13.50;;;;;13.07;100.00;100279.66;6323878;22;45110;-96
2022/04/25 04:01:11;;;;;;;;;21.00;15.75;;;;;13.11;100.00;100286.81;6299824;22;45152;-96
2022/04/25 04:03:38;;;;;;;;;16.50;14.25;;;;;13.00;100.00;100272.44;6271745;22;45383;-96
2022/04/25 04:06:09;;;;;;;;;18.50;14.75;;;;;13.01;100.00;100275.13;6299851;22;46936;-96
2022/04/25 04:08:38;;;;;;;;;13.00;12.00;;;;;12.95;100.00;100272.31;6276678;22;45266;-96
2022/04/25 04:11:10;;;;;;;;;20.75;15.25;;;;;13.00;100.00;100281.25;6302323;22;45392;-96
2022/04/25 04:13:40;;;;;;;;;14.75;14.75;;;;;13.03;100.00;100289.25;6275665;22;45427;-96
2022/04/25 04:16:07;;;;;;;;;17.75;15.00;;;;;12.89;100.00;100275.66;6301339;22;46658;-96
2022/04/25 04:18:33;;;;;;;;;17.50;15.00;;;;;12.83;100.00;100265.84;6293513;22;44704;-96
2022/04/25 04:21:01;;;;;;;;;18.75;12.25;;;;;12.83;100.00;100270.25;6294316;22;45166;-96
2022/04/25 04:23:31;;;;;;;;;21.75;16.75;;;;;12.82;100.00;100278.97;6295105;22;44848;-96
2022/04/25 04:26:00;;;;;;;;;18.00;14.25;;;;;12.91;100.00;100297.66;6296610;22;46988;-96
2022/04/25 04:28:26;;;;;;;;;15.50;14.50;;;;;12.88;100.00;100300.25;6299373;22;44741;-96
2022/04/25 04:30:53;;;;;;;;;21.50;17.75;;;;;12.71;100.00;100292.72;6292792;22;44742;-96
2022/04/25 04:33:18;;;;;;;;;17.50;16.75;;;;;12.77;100.00;100299.94;6290855;22;45416;-96
2022/04/25 04:38:28;;;;;;;;;19.00;15.25;;;;;12.74;100.00;100300.72;6315237;22;45212;-96
2022/04/25 04:40:53;;;;;;;;;15.50;14.50;;;;;12.71;100.00;100302.38;6288958;22;44759;-96
2022/04/25 04:43:23;;;;;;;;;17.75;15.25;;;;;12.60;100.00;100287.13;6291361;22;45464;-96
2022/04/25 04:45:50;;;;;;;;;17.75;15.00;;;;;12.71;100.00;100313.81;6266446;22;47185;-96
2022/04/25 04:48:16;;;;;;;;;17.50;16.25;;;;;12.63;100.00;100305.66;6268757;22;44797;-96
2022/04/25 04:50:55;;;;;;;;;27.75;18.00;;;;;12.59;100.00;100295.00;6292383;22;45302;-96
2022/04/25 04:53:21;;;;;;;;;21.25;18.00;;;;;12.69;100.00;100314.59;6288625;22;45231;-96
2022/04/25 04:55:47;;;;;;;;;18.50;15.50;;;;;12.69;100.00;100314.59;6293084;22;48484;-96
2022/04/25 04:58:13;;;;;;;;;22.00;18.75;;;;;12.63;100.00;100312.66;6243334;22;44748;-96
2022/04/25 05:00:39;;;;;;;;;19.50;15.75;;;;;12.61;100.00;100304.75;6291250;22;45255;-96
2022/04/25 05:03:05;;;;;;;;;20.25;19.25;;;;;12.72;100.00;100328.75;6290170;22;45369;-96
2022/04/25 05:05:32;;;;;;;;;19.25;19.25;;;;;12.64;100.00;100311.84;6308883;22;45465;-96
2022/04/25 05:07:58;;;;;;;;;23.50;20.75;;;;;12.64;100.00;100314.47;6289168;22;45302;-96
2022/04/25 05:10:23;;;;;;;;;20.25;16.75;;;;;12.68;100.00;100334.75;6263752;22;45468;-96
2022/04/25 05:12:55;;;;;;;;;24.25;21.25;;;;;12.71;100.00;100339.22;6292123;22;44840;-96
2022/04/25 05:15:22;;;;;;;;;23.50;18.75;;;;;12.62;100.00;100331.97;6293004;22;46042;-96
2022/04/25 05:17:48;;;;;;;;;24.50;19.75;;;;;12.55;100.00;100322.09;6292560;22;44681;-96
2022/04/25 05:20:14;;;;;;;;;19.00;16.75;;;;;12.51;100.00;100318.47;6263556;22;44731;-96
2022/04/25 05:22:44;;;;;;;;;21.25;16.00;;;;;12.54;100.00;100317.66;6319017;22;44860;-96
2022/04/25 05:25:11;;;;;;;;;28.25;21.50;;;;;12.51;100.00;100329.00;6295448;22;47492;-96
2022/04/25 05:27:40;;;;;;;;;21.75;19.50;;;;;12.63;100.00;100346.91;6290702;22;45450;-96
2022/04/25 05:30:06;;;;;;;;;25.25;20.25;;;;;12.56;100.00;100330.03;6291886;22;44705;-96
2022/04/25 05:32:55;;;;;;;;;17.75;17.50;;;;;12.62;100.00;100345.13;6294942;22;44788;-96
2022/04/25 05:35:26;;;;;;;;;28.75;25.00;;;;;12.64;100.00;100348.69;6291308;22;47267;-96
2022/04/25 05:40:22;;;;;;;;;24.50;18.75;;;;;12.70;100.00;100348.91;6321706;22;44724;-96
2022/04/25 05:42:50;;;;;;;;;27.00;23.25;;;;;12.82;100.00;100371.16;6300084;22;44913;-96
2022/04/25 05:46:09;;;;;;;;;30.50;24.50;;;;;12.78;100.00;100364.03;6319045;22;46551;-96
2022/04/25 05:54:12;;;;;;;;;25.50;23.25;;;;;12.83;100.00;100375.59;6168158;22;44778;-96
2022/04/25 05:56:39;;;;;;;;;33.75;28.25;;;;;12.93;100.00;100395.19;6268784;22;45483;-96
2022/04/25 05:59:04;;;;;;;;;32.25;28.75;;;;;12.89;100.00;100381.03;6259004;22;45510;-96
2022/04/25 06:01:30;;;;;;;;;31.50;27.50;;;;;12.95;100.00;100390.88;6284160;22;45108;-96
2022/04/25 06:03:55;;;;;;;;;35.25;29.75;;;;;13.01;100.00;100398.06;6232846;22;44766;-96
2022/04/25 06:06:23;;;;;;;;;32.75;22.25;;;;;13.02;100.00;100398.09;6259566;22;47003;-96
2022/04/25 06:08:49;;;;;;;;;31.25;25.25;;;;;13.15;100.00;100411.63;6273573;22;45629;-96
2022/04/25 06:11:26;;;;;;;;;38.75;30.25;;;;;13.17;100.00;100413.47;6272907;22;45236;-96
2022/04/25 06:13:52;;;;;;;;;30.00;25.00;;;;;13.21;100.00;100413.56;6293884;22;44820;-96
2022/04/25 06:24:03;;;;;;;;;31.00;24.25;;;;;13.36;100.00;100453.56;6304921;22;46118;-90
2022/04/25 06:26:30;;;;;;;;;35.25;25.25;;;;;13.45;100.00;100454.66;6309614;22;45966;-91
2022/04/25 06:28:56;;;;;;;;;30.00;27.00;;;;;13.52;100.00;100456.63;6355830;22;44737;-90
2022/04/25 06:31:23;;;;;;;;;29.00;28.50;;;;;13.47;100.00;100452.97;6340050;22;45357;-85
2022/04/25 06:33:48;;;;;;;;;25.25;24.75;;;;;13.54;100.00;100465.47;6333744;22;45332;-85
2022/04/25 06:36:14;;;;;;;;;25.50;22.75;;;;;13.61;100.00;100456.91;6325772;22;46094;-84
2022/04/25 06:38:39;;;;;;;;;32.50;30.50;;;;;13.69;100.00;100459.78;6306492;22;45628;-85
2022/04/25 06:41:04;;;;;;;;;18.00;18.00;;;;;13.74;100.00;100476.63;6307900;22;45363;-85
2022/04/25 06:43:31;;;;;;;;;33.50;24.25;;;;;13.79;100.00;100479.38;6304316;22;45396;-84
2022/04/25 06:45:57;;;;;;;;;26.75;24.75;;;;;13.83;100.00;100472.47;6324530;22;45289;-85
2022/04/25 06:48:22;;;;;;;;;34.25;28.75;;;;;13.86;100.00;100477.81;6305025;22;45577;-84
2022/04/25 06:50:48;;;;;;;;;35.00;29.75;;;;;13.94;100.00;100478.03;6332346;22;45233;-84
2022/04/25 06:53:13;;;;;;;;;27.50;26.25;;;;;13.93;100.00;100485.03;6338880;22;45308;-85
2022/04/25 06:55:39;;;;;;;;;35.75;30.75;;;;;14.01;100.00;100487.91;6337129;22;46332;-84
2022/04/25 06:58:06;;;;;;;;;24.25;24.00;;;;;14.06;100.00;100491.56;6334605;22;53027;-85
2022/04/25 07:00:31;;;;;;;;;29.00;26.75;;;;;14.08;100.00;100499.50;6305588;22;45397;-86
2022/04/25 07:02:57;;;;;;;;;32.50;30.00;;;;;14.14;100.00;100496.13;6332097;22;45329;-84
2022/04/25 07:05:24;;;;;;;;;33.25;29.75;;;;;14.16;100.00;100500.59;6328311;22;45710;-85
2022/04/25 07:07:50;;;;;;;;;31.50;26.75;;;;;14.16;100.00;100503.25;6332277;22;45366;-84
2022/04/25 07:10:15;;;;;;;;;35.75;30.00;;;;;14.10;100.00;100515.38;6323526;22;45467;-86
2022/04/25 07:12:41;;;;;;;;;30.50;27.25;;;;;13.99;100.00;100523.91;6332220;22;45324;-84
2022/04/25 07:15:08;;;;;;;;;36.00;32.75;;;;;14.00;100.00;100506.31;6330666;22;45635;-83
2022/04/25 07:17:33;;;;;;;;;33.25;29.00;;;;;14.12;100.00;100513.69;6330050;22;45321;-85
2022/04/25 07:19:58;;;;;;;;;34.50;26.75;;;;;14.23;100.00;100517.50;6334782;22;45690;-85
2022/04/25 07:30:36;;;;;;;;;31.25;30.00;;;;;14.34;100.00;100536.25;6323528;22;45325;-84
2022/04/25 07:33:01;;;;;;;;;29.25;27.00;;;;;14.29;100.00;100538.78;6301669;22;45564;-85
2022/04/25 07:35:28;;;;;;;;;34.50;27.25;;;;;14.15;100.00;100527.84;6329912;22;45301;-84
2022/04/25 07:37:55;;;;;;;;;36.50;33.25;;;;;14.03;100.00;100532.78;6302951;22;45809;-84
2022/04/25 07:40:21;;;;;;;;;32.00;25.50;;;;;13.95;100.00;100528.19;6331432;22;45304;-84
2022/04/25 07:42:47;;;;;;;;;32.25;30.50;;;;;13.99;100.00;100523.91;6303464;22;45450;-86
2022/04/25 07:45:12;;;;;;;;;31.50;28.00;;;;;14.01;100.00;100526.56;6330273;22;45426;-87
2022/04/25 07:47:42;;;;;;;;;36.00;31.00;;;;;14.12;100.00;100525.09;6333193;22;45304;-84
2022/04/25 07:50:12;;;;;;;;;39.75;33.50;;;;;14.29;100.00;100522.94;6330724;22;45301;-84
2022/04/25 07:52:37;;;;;;;;;32.75;30.00;;;;;14.60;100.00;100524.59;6296313;22;45392;-84
2022/04/25 07:55:04;;;;;;;;;39.50;33.75;;;;;14.80;100.00;100517.16;6301869;22;46645;-85
2022/04/25 07:57:29;;;;;;;;;28.50;27.00;;;;;14.95;100.00;100544.81;6331627;22;45265;-85
2022/04/25 07:59:56;;;;;;;;;33.75;26.75;;;;;15.11;100.00;100553.13;6330429;22;45361;-84
2022/04/25 08:02:23;;;;;;;;;37.00;31.50;;;;;15.18;100.00;100566.50;6331679;22;45339;-85
2022/04/25 08:04:48;;;;;;;;;36.25;30.00;;;;;15.33;100.00;100553.63;6334130;22;45368;-85
2022/04/25 08:07:15;;;;;;;;;33.50;27.25;;;;;15.52;100.00;100558.47;6301182;22;45332;-85
2022/04/25 08:09:41;;;;;;;;;33.50;32.50;;;;;15.68;100.00;100573.75;6303883;22;45650;-85
2022/04/25 08:20:18;;;;;;;;;31.25;29.50;;;;;15.88;100.00;100599.75;6329866;22;45256;-85
2022/04/25 08:22:45;;;;;;;;;32.00;27.00;;;;;15.99;100.00;100590.28;6330395;22;45310;-84
2022/04/25 08:25:11;;;;;;;;;27.75;27.50;;;;;16.20;100.00;100591.63;6332610;22;46087;-85
2022/04/25 08:27:36;;;;;;;;;30.50;28.00;;;;;16.48;100.00;100601.84;6331952;22;45386;-84
2022/04/25 08:30:02;;;;;;;;;29.00;27.00;;;;;16.74;100.00;100607.63;6302447;22;45646;-85
2022/04/25 08:32:28;;;;;;;;;29.00;26.50;;;;;16.95;100.00;100619.47;6302017;22;45654;-85
2022/04/25 08:34:54;;;;;;;;;29.25;24.50;;;;;17.12;100.00;100629.44;6330477;22;45379;-87
2022/04/25 08:37:19;;;;;;;;;30.75;26.50;;;;;17.27;100.00;100642.09;6322292;22;45712;-85
2022/04/25 08:39:45;;;;;;;;;34.25;31.50;;;;;17.31;100.00;100643.94;6331113;22;45392;-86
2022/04/25 08:42:10;;;;;;;;;29.50;23.25;;;;;17.29;100.00;100655.38;6330926;22;45332;-85
2022/04/25 08:44:37;;;;;;;;;30.75;27.25;;;;;17.19;100.00;100655.22;6299039;22;47231;-85
2022/04/25 08:47:05;;;;;;;;;30.25;28.75;;;;;17.13;100.00;100667.47;6303801;22;45974;-85
2022/04/25 08:49:31;;;;;;;;;34.00;28.25;;;;;17.09;100.00;100656.78;6302047;22;45488;-85
2022/04/25 08:52:00;;;;;;;;;33.25;29.75;;;;;17.14;100.00;100659.53;6300927;22;45297;-85
2022/04/25 08:54:31;;;;;;;;;33.75;29.50;;;;;17.28;100.00;100667.75;6301884;22;47125;-86
2022/04/25 08:56:58;;;;;;;;;29.00;28.50;;;;;17.40;100.00;100674.09;6323588;22;45796;-85
2022/04/25 08:59:24;;;;;;;;;32.00;29.00;;;;;17.42;100.00;100683.88;6301916;22;45448;-87
2022/04/25 09:01:49;;;;;;;;;30.00;28.25;;;;;17.40;100.00;100685.63;6331271;22;45358;-86
2022/04/25 09:04:15;;;;;;;;;27.00;24.25;;;;;17.41;100.00;100683.88;6330028;22;45377;-85
2022/04/25 09:06:41;;;;;;;;;31.50;24.00;;;;;17.47;100.00;100677.78;6302868;22;45441;-86
2022/04/25 09:09:06;;;;;;;;;32.75;27.25;;;;;17.55;100.00;100697.34;6327538;22;45342;-85
2022/04/25 09:14:17;;;;;;;;;27.00;24.25;;;;;17.78;100.00;100693.25;6331275;22;45316;-86
2022/04/25 09:16:42;;;;;;;;;27.50;22.25;;;;;17.82;100.00;100703.94;6330605;22;45389;-85
2022/04/25 09:19:08;;;;;;;;;28.25;22.50;;;;;17.85;100.00;100709.31;6301309;22;45615;-85
2022/04/25 09:21:41;;;;;;;;;27.75;24.75;;;;;17.84;100.00;100702.19;6302125;22;45297;-85
2022/04/25 09:24:27;;;;;;;;;32.00;22.25;;;;;17.96;100.00;100701.47;6332735;22;45714;-85
2022/04/25 09:27:09;;;;;;;;;30.00;29.00;;;;;18.17;100.00;100707.94;6331688;22;45333;-85
2022/04/25 09:29:40;;;;;;;;;29.50;25.75;;;;;18.30;100.00;100702.81;6330575;22;45588;-86
2022/04/25 09:32:09;;;;;;;;;28.25;25.50;;;;;18.43;100.00;100711.84;6330705;22;45302;-85
2022/04/25 09:37:19;;;;;;;;;27.00;21.50;;;;;18.74;100.00;100712.19;6329636;22;45603;-85
2022/04/25 09:39:45;;;;;;;;;25.25;23.50;;;;;18.96;100.00;100709.78;6321793;22;49089;-85
2022/04/25 09:42:10;;;;;;;;;25.75;23.75;;;;;19.14;100.00;100721.47;6329605;22;45347;-85
2022/04/25 09:44:56;;;;;;;;;25.25;22.50;;;;;19.35;100.00;100734.97;6303591;22;48810;-87
2022/04/25 09:47:29;;;;;;;;;21.75;21.00;;;;;19.50;100.00;100729.78;6302862;22;45780;-85
2022/04/25 09:50:08;;;;;;;;;25.25;19.25;;;;;19.61;100.00;100731.63;6299538;22;45556;-85
2022/04/25 09:52:36;;;;;;;;;23.00;22.00;;;;;19.84;100.00;100737.09;6302732;22;45687;-86
2022/04/25 09:55:14;;;;;;;;;22.00;21.00;;;;;19.97;100.00;100745.19;6332823;22;45481;-86
2022/04/25 09:57:40;;;;;;;;;26.25;21.25;;;;;20.09;100.00;100742.59;6301932;22;45475;-86
2022/04/25 10:00:06;;;;;;;;;25.25;23.75;;;;;20.17;100.00;100736.44;6305153;22;45270;-85
2022/04/25 10:02:37;;;;;;;;;22.50;20.25;;;;;20.37;100.00;100743.63;6333334;22;45877;-86
2022/04/25 10:05:12;;;;;;;;;21.00;21.00;;;;;20.50;100.00;100747.25;6300381;22;47194;-87
2022/04/25 10:07:39;;;;;;;;;22.67;19.00;;;;;20.58;100.00;100750.84;6331021;22;45325;-86
2022/04/25 10:10:06;;;;;;;;;26.00;19.50;;;;;20.63;100.00;100753.53;6302146;22;45385;-86
2022/04/25 10:12:35;;;;;;;;;23.67;18.33;;;;;20.70;100.00;100757.97;6332940;22;45334;-86
2022/04/25 10:15:01;;;;;;;;;21.50;19.00;;;;;20.74;100.00;100757.13;6302732;22;47273;-86
2022/04/25 10:17:27;;;;;;;;;19.33;18.67;;;;;20.88;100.00;100753.59;6301651;22;45944;-86
2022/04/25 10:19:55;;;;;;;;;23.25;22.75;;;;;21.02;100.00;100759.00;6302801;22;45376;-87
2022/04/25 10:22:21;;;;;;;;;21.00;19.67;;;;;21.05;100.00;100768.78;6332176;22;45356;-87
2022/04/25 10:24:46;;;;;;;;;24.33;20.67;;;;;21.12;100.00;100761.69;6331028;22;45361;-87
2022/04/25 10:27:14;;;;;;;;;24.33;20.67;;;;;21.27;100.00;100759.03;6302901;22;47755;-87
2022/04/25 10:29:49;;;;;;;;;18.00;17.33;;;;;21.49;100.00;100771.50;6320315;22;45341;-87
2022/04/25 10:32:21;;;;;;;;;15.33;15.33;;;;;21.71;100.00;100777.72;6307646;22;45287;-87
2022/04/25 10:34:51;;;;;;;;;19.33;17.00;;;;;21.89;100.00;100767.94;6301474;22;47094;-86
2022/04/25 10:37:32;;;;;;;;;17.33;15.33;;;;;22.16;100.00;100776.78;6330850;22;45296;-86
2022/04/25 10:40:00;;;;;;;;;18.67;17.67;;;;;22.43;100.00;100787.41;6309045;22;45307;-87
2022/04/25 10:45:09;;;;;;;;;15.67;15.33;;;;;23.45;100.00;100781.50;6331914;22;45746;-88
2022/04/25 10:47:35;;;;;;;;;16.67;15.00;;;;;25.45;100.00;100790.81;6334171;22;45266;-88
2022/04/25 10:50:04;;;;;;;;;20.00;18.33;;;;;27.13;100.00;100800.19;6334047;22;45408;-88
2022/04/25 10:55:23;;;;;;;;;18.00;15.00;;;;;30.76;95.52;100823.47;6338413;22;45974;-89
2022/04/25 10:58:03;;;;;;;;;18.33;14.00;;;;;32.13;91.25;100834.22;6343995;22;45392;-94
2022/04/25 11:00:41;;;;;;;;;14.67;14.33;;;;;33.46;88.83;100838.03;6317556;22;45269;-89
2022/04/25 11:03:21;;;;;;;;;13.00;13.00;;;;;33.64;83.18;100841.66;6311435;22;45159;-88
2022/04/25 11:05:55;;;;;;;;;15.67;15.00;;;;;35.37;82.16;100843.38;6336595;22;45615;-89
2022/04/25 11:08:20;;;;;;;;;17.67;17.67;;;;;37.38;81.90;100841.03;6316303;22;45363;-91
2022/04/25 11:10:58;;;;;;;;;12.00;12.00;;;;;38.08;74.96;100847.28;6334999;22;45293;-88
2022/04/25 11:13:26;;;;;;;;;17.00;15.33;;;;;37.45;72.17;100847.88;6342953;22;45516;-89
2022/04/25 11:15:54;;;;;;;;;17.33;15.33;;;;;37.77;69.52;100858.50;6326637;22;45387;-88
2022/04/25 11:18:34;;;;;;;;;18.00;14.67;;;;;37.25;68.19;100863.75;6332641;22;45291;-90
2022/04/25 11:21:04;;;;;;;;;12.67;12.67;;;;;38.65;68.72;100859.75;6331098;22;45666;-88
2022/04/25 11:23:32;;;;;;;;;15.00;14.67;;;;;40.42;66.29;100862.94;6307984;22;45565;-90
2022/04/25 11:25:59;;;;;;;;;13.67;12.67;;;;;41.90;64.18;100864.63;6334971;22;46959;-87
2022/04/25 11:28:26;;;;;;;;;15.00;12.00;;;;;43.31;62.49;100859.50;6334607;22;45229;-88
2022/04/25 11:31:13;;;;;;;;;12.00;11.00;;;;;44.78;59.29;100864.03;6334819;22;45369;-88
2022/04/25 11:33:47;;;;;;;;;11.67;10.33;;;;;45.78;56.39;100864.16;6336295;22;45552;-94
2022/04/25 11:36:13;;;;;;;;;10.00;9.00;;;;;44.86;53.79;100866.00;6334459;22;47238;-89
2022/04/25 11:41:26;;;;;;;;;15.00;13.67;;;;;46.71;47.58;100863.69;6365325;22;45562;-95
2022/04/25 11:43:51;;;;;;;;;9.33;9.33;;;;;47.47;46.69;100863.88;6337899;22;45437;-94
2022/04/25 11:46:17;;;;;;;;;10.00;10.00;;;;;48.07;46.54;100866.41;6336893;22;48116;-95
2022/04/25 11:48:48;;;;;;;;;11.33;9.00;;;;;49.04;46.75;100865.53;6367444;22;45635;-94
2022/04/25 11:51:22;;;;;;;;;8.67;8.67;;;;;49.36;43.54;100866.34;6339218;22;45462;-94
2022/04/25 11:53:47;;;;;;;;;8.00;7.67;;;;;49.25;43.18;100875.13;6337439;22;45368;-91
2022/04/25 11:56:15;;;;;;;;;13.67;11.00;;;;;46.78;40.70;100874.97;6343189;22;47229;-88
2022/04/25 11:58:41;;;;;;;;;9.33;9.00;;;;;45.69;42.49;100873.44;6366872;22;45826;-88
2022/04/25 12:01:08;;;;;;;;;6.67;6.67;;;;;46.53;42.76;100863.75;6338419;22;45543;-88
2022/04/25 12:03:33;;;;;;;;;8.33;7.00;;;;;47.79;42.76;100867.69;6336826;22;45273;-90
2022/04/25 12:06:13;;;;;;;;;10.33;9.00;;;;;49.16;40.32;100877.09;6334273;22;47785;-90
2022/04/25 12:17:04;;;;;;;;;7.00;7.00;;;;;50.22;40.38;100874.59;6362682;22;45454;-88
2022/04/25 12:19:29;;;;;;;;;8.00;5.67;;;;;51.23;40.24;100867.69;6334910;22;45957;-90
2022/04/25 12:22:04;;;;;;;;;7.00;6.33;;;;;52.15;36.27;100868.84;6366194;22;45323;-90
2022/04/25 12:24:29;;;;;;;;;6.33;6.33;;;;;51.54;37.40;100865.63;6358658;22;45350;-88
2022/04/25 12:26:55;;;;;;;;;5.67;5.00;;;;;48.85;35.80;100868.56;6370021;22;45271;-89